Time;durP1;ratioP1;P1;durP2;ratioP2;P2;SDS_P1;SDS_P2;PMS_P1;PMS_P2;Temp;Humidity;BMP_temperature;BMP_pressure;BME280_temperature;BME280_humidity;BME280_pressure;Samples;Min_cycle;Max_cycle;Signal;HPM_P1;HPM_P2
2021/04/22 00:01:49;;;;;;;14.40;3.22;;;4.90;70.90;;;;;;5004507;28;20021;-67
2021/04/22 00:04:15;;;;;;;11.05;2.75;;;4.90;71.10;;;;;;5002907;28;20096;-67
2021/04/22 00:06:41;;;;;;;14.45;2.78;;;5.00;71.20;;;;;;5006639;28;20022;-68
2021/04/22 00:09:10;;;;;;;16.02;3.63;;;5.00;70.90;;;;;;4985138;28;20026;-66
2021/04/22 00:11:36;;;;;;;15.88;3.40;;;5.00;70.90;;;;;;5004859;28;20494;-68
2021/04/22 00:14:04;;;;;;;9.15;2.42;;;5.00;70.80;;;;;;5002765;28;20041;-69
2021/04/22 00:16:29;;;;;;;13.48;3.20;;;5.00;70.80;;;;;;5003673;28;20022;-67
2021/04/22 00:18:55;;;;;;;11.02;3.15;;;5.10;70.80;;;;;;5004479;28;20028;-68
2021/04/22 00:21:21;;;;;;;17.35;3.50;;;5.00;70.50;;;;;;5002983;28;21742;-67
2021/04/22 00:23:46;;;;;;;17.60;2.78;;;5.10;70.90;;;;;;5003142;28;20459;-66
2021/04/22 00:26:12;;;;;;;15.02;3.13;;;5.00;70.60;;;;;;5004241;28;20471;-69
2021/04/22 00:28:37;;;;;;;14.93;2.88;;;4.90;71.10;;;;;;5003093;28;20034;-68
2021/04/22 00:31:03;;;;;;;13.90;2.70;;;4.90;71.30;;;;;;5005044;28;20029;-69
2021/04/22 00:33:28;;;;;;;11.32;2.80;;;4.90;71.40;;;;;;5003936;28;20033;-68
2021/04/22 00:35:54;;;;;;;16.92;3.58;;;4.90;71.70;;;;;;5005578;28;20069;-67
2021/04/22 00:38:20;;;;;;;15.68;2.70;;;4.90;71.40;;;;;;5004357;28;20017;-69
2021/04/22 00:40:47;;;;;;;19.40;4.07;;;4.90;71.40;;;;;;5004472;28;20108;-67
2021/04/22 00:43:16;;;;;;;17.27;2.80;;;5.00;71.70;;;;;;5004064;28;20076;-67
2021/04/22 00:45:43;;;;;;;13.50;2.72;;;5.00;71.40;;;;;;5002250;28;20030;-67
2021/04/22 00:48:13;;;;;;;15.77;3.05;;;4.90;71.50;;;;;;5004842;28;20041;-68
2021/04/22 00:50:41;;;;;;;17.60;3.40;;;4.90;71.80;;;;;;5001768;28;20091;-68
2021/04/22 00:53:07;;;;;;;12.52;2.75;;;4.90;71.70;;;;;;5004221;28;20041;-68
2021/04/22 00:55:34;;;;;;;18.17;3.65;;;5.00;71.60;;;;;;5002960;28;20026;-68
2021/04/22 00:58:00;;;;;;;15.07;2.58;;;4.90;71.90;;;;;;4987154;28;20092;-67
2021/04/22 01:00:30;;;;;;;16.15;3.03;;;4.90;71.90;;;;;;5003073;28;20034;-68
2021/04/22 01:02:57;;;;;;;23.02;3.25;;;4.90;71.60;;;;;;5003301;28;20025;-67
2021/04/22 01:05:33;;;;;;;20.05;3.13;;;4.90;71.50;;;;;;5003213;28;20148;-66
2021/04/22 01:07:58;;;;;;;14.15;3.10;;;5.00;71.50;;;;;;5006443;28;20061;-67
2021/04/22 01:10:24;;;;;;;14.20;2.97;;;4.90;71.40;;;;;;5005274;28;20506;-67
2021/04/22 01:12:50;;;;;;;13.98;3.40;;;5.00;71.50;;;;;;5005567;28;20504;-69
2021/04/22 01:15:20;;;;;;;17.23;3.15;;;5.00;71.60;;;;;;5009667;28;20119;-68
2021/04/22 01:17:46;;;;;;;14.30;2.97;;;4.90;71.80;;;;;;5008946;28;20065;-68
2021/04/22 01:20:18;;;;;;;14.00;3.00;;;5.00;72.00;;;;;;5009384;28;20806;-67
2021/04/22 01:22:45;;;;;;;11.85;3.13;;;4.90;72.00;;;;;;5008708;28;20034;-67
2021/04/22 01:25:14;;;;;;;21.35;3.78;;;4.90;72.40;;;;;;5009466;28;20502;-69
2021/04/22 01:27:40;;;;;;;11.40;3.75;;;4.90;72.70;;;;;;5010909;28;20419;-67
2021/04/22 01:30:09;;;;;;;13.80;2.90;;;4.80;72.60;;;;;;5015360;28;20033;-67
2021/04/22 01:32:35;;;;;;;16.80;2.88;;;4.90;72.80;;;;;;5008571;28;20120;-68
2021/04/22 01:35:01;;;;;;;15.40;3.10;;;4.90;72.80;;;;;;5007297;28;20545;-68
2021/04/22 01:37:28;;;;;;;18.08;3.38;;;4.90;72.60;;;;;;5005958;28;20034;-68
2021/04/22 01:39:54;;;;;;;15.40;2.78;;;4.90;72.60;;;;;;5008808;28;20093;-67
2021/04/22 01:42:20;;;;;;;16.67;2.88;;;5.00;72.60;;;;;;5009309;28;20606;-68
2021/04/22 01:44:46;;;;;;;15.98;2.97;;;4.90;72.70;;;;;;5009341;28;20033;-67
2021/04/22 01:47:12;;;;;;;15.80;3.85;;;4.90;72.70;;;;;;5008663;28;20111;-67
2021/04/22 01:49:38;;;;;;;15.60;3.38;;;4.90;72.70;;;;;;5006922;28;20076;-66
2021/04/22 01:52:03;;;;;;;12.90;3.08;;;4.90;72.70;;;;;;4989792;28;20037;-66
2021/04/22 01:54:29;;;;;;;12.48;3.10;;;5.00;72.70;;;;;;5007544;28;20026;-68
2021/04/22 01:56:55;;;;;;;16.10;3.28;;;5.00;72.70;;;;;;5009112;28;20030;-67
2021/04/22 01:59:20;;;;;;;12.40;2.92;;;5.00;72.20;;;;;;5006562;28;20026;-67
2021/04/22 02:01:46;;;;;;;20.73;2.72;;;5.00;72.40;;;;;;5006453;28;20033;-68
2021/04/22 02:04:11;;;;;;;12.65;2.55;;;5.00;71.60;;;;;;5007931;28;20552;-67
2021/04/22 02:06:37;;;;;;;11.25;2.95;;;5.00;71.90;;;;;;5006121;28;20034;-67
2021/04/22 02:09:03;;;;;;;18.63;3.15;;;5.00;71.90;;;;;;5001464;28;20466;-69
2021/04/22 02:11:28;;;;;;;13.48;2.55;;;5.00;71.40;;;;;;5005887;28;20054;-68
2021/04/22 02:13:54;;;;;;;16.88;3.20;;;5.10;71.20;;;;;;5007113;28;20033;-68
2021/04/22 02:16:20;;;;;;;22.10;3.30;;;5.10;70.90;;;;;;5008702;28;20665;-67
2021/04/22 02:18:46;;;;;;;13.05;2.80;;;5.10;70.80;;;;;;5007678;28;20060;-67
2021/04/22 02:21:11;;;;;;;18.55;2.88;;;5.10;70.30;;;;;;5008876;28;20398;-67
2021/04/22 02:23:37;;;;;;;12.15;2.67;;;5.10;69.80;;;;;;5003533;28;20069;-68
2021/04/22 02:26:02;;;;;;;12.90;3.25;;;5.10;69.90;;;;;;5007242;28;20280;-67
2021/04/22 02:28:28;;;;;;;15.27;2.55;;;5.20;69.90;;;;;;5008192;28;20502;-67
2021/04/22 02:30:53;;;;;;;11.70;2.67;;;5.10;69.40;;;;;;5000623;28;20041;-69
2021/04/22 02:33:19;;;;;;;13.15;2.17;;;5.20;69.50;;;;;;5007528;28;20121;-68
2021/04/22 02:35:47;;;;;;;17.27;3.17;;;5.20;69.50;;;;;;5007494;28;20029;-67
2021/04/22 02:38:14;;;;;;;16.50;2.97;;;5.20;69.30;;;;;;5008819;28;20163;-67
2021/04/22 02:40:42;;;;;;;14.25;2.63;;;5.20;69.20;;;;;;5007196;28;20030;-67
2021/04/22 02:43:11;;;;;;;10.50;2.88;;;5.30;69.10;;;;;;5007796;28;20038;-67
2021/04/22 02:45:40;;;;;;;12.35;2.70;;;5.30;68.70;;;;;;5007381;28;20037;-67
2021/04/22 02:48:06;;;;;;;11.50;2.65;;;5.30;69.10;;;;;;5008789;28;20034;-67
2021/04/22 02:50:35;;;;;;;8.90;2.00;;;5.20;68.60;;;;;;5002184;28;20029;-66
2021/04/22 02:53:02;;;;;;;17.13;2.80;;;5.30;68.20;;;;;;4987409;28;20348;-66
2021/04/22 02:55:28;;;;;;;15.82;2.67;;;5.30;68.40;;;;;;5003910;28;20052;-67
2021/04/22 02:57:53;;;;;;;17.90;3.05;;;5.30;68.60;;;;;;5007620;28;20363;-67
2021/04/22 03:00:22;;;;;;;16.70;2.70;;;5.30;68.80;;;;;;5008244;28;20033;-67
2021/04/22 03:02:48;;;;;;;12.25;3.25;;;5.20;69.00;;;;;;5007529;28;20049;-67
2021/04/22 03:05:14;;;;;;;10.80;2.63;;;5.30;69.40;;;;;;5005103;28;20107;-67
2021/04/22 03:07:40;;;;;;;14.95;3.05;;;5.20;69.40;;;;;;5007653;28;20026;-69
2021/04/22 03:10:08;;;;;;;10.40;2.55;;;5.20;69.80;;;;;;5006851;28;20042;-67
2021/04/22 03:12:34;;;;;;;16.05;3.08;;;5.10;69.90;;;;;;5004452;28;20108;-66
2021/04/22 03:15:00;;;;;;;19.85;3.10;;;5.10;70.40;;;;;;5006815;28;20022;-67
2021/04/22 03:17:26;;;;;;;16.70;3.00;;;5.20;70.30;;;;;;5007316;28;20025;-67
2021/04/22 03:19:51;;;;;;;16.55;3.28;;;5.20;70.20;;;;;;5006577;28;20072;-68
2021/04/22 03:22:17;;;;;;;13.77;2.63;;;5.20;70.00;;;;;;5002658;28;20038;-67
2021/04/22 03:24:42;;;;;;;15.85;3.00;;;5.20;70.00;;;;;;5005358;28;20437;-68
2021/04/22 03:27:08;;;;;;;11.05;3.08;;;5.20;70.00;;;;;;5008894;28;20022;-67
2021/04/22 03:29:34;;;;;;;14.90;2.67;;;5.20;69.80;;;;;;5007096;28;20030;-68
2021/04/22 03:32:00;;;;;;;18.40;2.83;;;5.20;69.50;;;;;;5008423;28;20033;-67
2021/04/22 03:34:26;;;;;;;12.32;2.55;;;5.20;68.90;;;;;;5005022;28;20310;-68
2021/04/22 03:36:51;;;;;;;15.35;2.97;;;5.20;68.30;;;;;;5006097;28;20101;-67
2021/04/22 03:39:17;;;;;;;11.10;2.70;;;5.30;68.40;;;;;;5006499;28;20431;-67
2021/04/22 03:41:43;;;;;;;13.30;2.90;;;5.30;68.30;;;;;;5008699;28;20029;-67
2021/04/22 03:44:08;;;;;;;14.32;2.80;;;5.30;68.60;;;;;;5006017;28;20544;-68
2021/04/22 03:46:34;;;;;;;12.77;3.15;;;5.30;69.00;;;;;;5008493;28;20065;-68
2021/04/22 03:49:00;;;;;;;9.05;2.53;;;5.30;69.00;;;;;;5006478;28;20075;-68
2021/04/22 03:51:25;;;;;;;16.35;2.67;;;5.20;68.90;;;;;;5006612;28;20064;-66
2021/04/22 03:53:51;;;;;;;12.27;2.50;;;5.30;68.70;;;;;;5005435;28;20033;-68
2021/04/22 03:56:17;;;;;;;17.27;2.92;;;5.30;68.60;;;;;;5007326;28;20072;-68
2021/04/22 03:58:42;;;;;;;13.10;2.97;;;5.30;68.60;;;;;;5007103;28;20383;-67
2021/04/22 04:01:08;;;;;;;10.18;2.30;;;5.30;68.80;;;;;;5005518;28;20030;-68
2021/04/22 04:03:33;;;;;;;8.90;2.35;;;5.30;68.80;;;;;;5005337;28;20125;-67
2021/04/22 04:05:59;;;;;;;16.33;3.03;;;5.30;68.50;;;;;;5006054;28;20038;-67
2021/04/22 04:08:25;;;;;;;14.63;2.83;;;5.30;68.60;;;;;;5005749;28;20113;-68
2021/04/22 04:10:50;;;;;;;12.30;2.75;;;5.30;68.80;;;;;;5005592;28;20030;-67
2021/04/22 04:13:16;;;;;;;15.68;3.47;;;5.30;68.60;;;;;;5003251;28;20034;-67
2021/04/22 04:15:46;;;;;;;10.88;2.53;;;5.30;68.60;;;;;;5006268;28;20022;-67
2021/04/22 04:18:13;;;;;;;9.57;2.65;;;5.30;68.60;;;;;;5005133;28;20053;-67
2021/04/22 04:20:39;;;;;;;7.93;2.30;;;5.20;68.70;;;;;;5005558;28;20065;-68
2021/04/22 04:23:04;;;;;;;15.50;3.08;;;5.20;68.70;;;;;;5005275;28;20057;-68
2021/04/22 04:25:30;;;;;;;17.02;2.67;;;5.20;69.00;;;;;;4987061;28;20059;-68
2021/04/22 04:27:55;;;;;;;16.77;3.33;;;5.20;69.50;;;;;;4986175;28;20041;-67
2021/04/22 04:30:21;;;;;;;14.48;2.90;;;5.20;69.80;;;;;;4986592;28;20035;-67
2021/04/22 04:32:48;;;;;;;9.25;2.40;;;5.20;69.70;;;;;;4985464;28;20029;-68
2021/04/22 04:35:14;;;;;;;10.18;2.45;;;5.20;69.50;;;;;;4982878;28;20022;-66
2021/04/22 04:37:40;;;;;;;11.25;2.20;;;5.30;69.70;;;;;;4984739;28;20042;-67
2021/04/22 04:40:08;;;;;;;15.82;3.17;;;5.30;69.40;;;;;;4986160;28;20077;-66
2021/04/22 04:42:34;;;;;;;9.32;2.10;;;5.30;69.70;;;;;;4987659;28;20435;-68
2021/04/22 04:44:59;;;;;;;11.55;2.47;;;5.30;69.70;;;;;;4985798;28;20034;-68
2021/04/22 04:47:25;;;;;;;18.05;3.30;;;5.40;70.00;;;;;;4987367;28;20476;-67
2021/04/22 04:49:51;;;;;;;10.80;2.55;;;5.40;70.10;;;;;;4990942;28;20529;-66
2021/04/22 04:52:16;;;;;;;17.20;2.80;;;5.40;70.50;;;;;;4990602;28;20038;-68
2021/04/22 04:54:42;;;;;;;16.30;2.60;;;5.40;71.20;;;;;;4988380;28;20105;-68
2021/04/22 04:57:08;;;;;;;10.95;2.50;;;5.40;72.90;;;;;;4988811;28;20065;-67
2021/04/22 04:59:34;;;;;;;14.25;3.08;;;5.30;73.00;;;;;;4989500;28;20018;-66
2021/04/22 05:02:00;;;;;;;16.02;3.35;;;5.20;73.90;;;;;;4991498;28;20029;-66
2021/04/22 05:04:25;;;;;;;14.15;2.70;;;5.30;74.00;;;;;;4986343;28;20030;-67
2021/04/22 05:06:51;;;;;;;18.33;3.20;;;5.30;74.50;;;;;;4992326;28;20616;-67
2021/04/22 05:09:16;;;;;;;19.45;3.05;;;5.40;73.70;;;;;;4987830;28;20136;-66
2021/04/22 05:11:42;;;;;;;18.75;2.65;;;5.40;74.10;;;;;;4971882;28;20026;-66
2021/04/22 05:14:07;;;;;;;13.52;2.42;;;5.40;74.00;;;;;;4986391;28;20030;-67
2021/04/22 05:16:33;;;;;;;13.68;2.60;;;5.50;74.20;;;;;;4989659;28;20105;-67
2021/04/22 05:18:59;;;;;;;14.88;2.42;;;5.50;73.80;;;;;;4985229;28;20030;-66
2021/04/22 05:21:24;;;;;;;18.20;3.03;;;5.60;73.70;;;;;;4991440;28;20482;-66
2021/04/22 05:23:50;;;;;;;15.38;2.38;;;5.60;72.50;;;;;;4989873;28;20030;-66
2021/04/22 05:26:19;;;;;;;13.85;2.83;;;5.60;72.30;;;;;;4993201;28;20102;-65
2021/04/22 05:28:44;;;;;;;9.45;1.95;;;5.70;71.30;;;;;;4987729;28;20092;-65
2021/04/22 05:31:10;;;;;;;21.75;3.15;;;5.80;71.30;;;;;;4994015;28;20450;-65
2021/04/22 05:33:36;;;;;;;22.33;2.78;;;5.80;71.90;;;;;;4989925;28;20102;-65
2021/04/22 05:36:02;;;;;;;13.80;2.58;;;5.80;72.00;;;;;;4990350;28;20037;-65
2021/04/22 05:38:27;;;;;;;14.07;2.58;;;5.70;72.80;;;;;;4989615;28;20038;-65
2021/04/22 05:40:53;;;;;;;15.82;2.92;;;5.70;73.50;;;;;;4988709;28;20446;-65
2021/04/22 05:43:18;;;;;;;9.95;2.70;;;5.60;76.80;;;;;;4990275;28;20030;-65
2021/04/22 05:45:44;;;;;;;12.25;2.70;;;5.40;78.70;;;;;;4991999;28;20371;-64
2021/04/22 05:48:10;;;;;;;15.45;3.17;;;5.40;79.90;;;;;;4991134;28;20030;-65
2021/04/22 05:50:35;;;;;;;18.85;3.17;;;5.40;80.60;;;;;;4990379;28;20053;-65
2021/04/22 05:53:02;;;;;;;12.60;2.67;;;5.30;80.30;;;;;;4989299;28;20026;-65
2021/04/22 05:55:28;;;;;;;16.80;2.97;;;5.30;80.70;;;;;;4986963;28;20022;-65
2021/04/22 05:57:56;;;;;;;14.20;2.72;;;5.30;81.50;;;;;;4989929;28;20045;-65
2021/04/22 06:00:22;;;;;;;10.88;2.30;;;5.30;82.20;;;;;;4987043;28;20045;-65
2021/04/22 06:02:47;;;;;;;16.92;3.30;;;5.20;83.30;;;;;;4990711;28;20169;-65
2021/04/22 06:05:13;;;;;;;14.90;3.15;;;5.10;83.90;;;;;;4989850;28;20038;-64
2021/04/22 06:07:39;;;;;;;8.73;2.55;;;5.10;84.20;;;;;;4991219;28;20023;-65
2021/04/22 06:10:06;;;;;;;11.23;2.10;;;5.10;82.60;;;;;;4989905;28;21616;-64
2021/04/22 06:12:32;;;;;;;12.43;3.25;;;5.20;83.00;;;;;;4999669;28;20092;-65
2021/04/22 06:14:58;;;;;;;15.55;2.80;;;5.30;82.20;;;;;;4986621;28;20022;-66
2021/04/22 06:17:23;;;;;;;17.40;3.05;;;5.40;81.80;;;;;;4987850;28;20266;-66
2021/04/22 06:19:49;;;;;;;19.73;3.50;;;5.60;81.70;;;;;;4984784;28;20153;-67
2021/04/22 06:22:15;;;;;;;14.77;2.72;;;5.60;81.90;;;;;;4988545;28;20027;-66
2021/04/22 06:24:40;;;;;;;16.55;3.30;;;5.80;80.50;;;;;;4984147;28;20080;-66
2021/04/22 06:27:06;;;;;;;21.75;3.35;;;5.80;79.90;;;;;;4988691;28;20045;-66
2021/04/22 06:29:31;;;;;;;14.50;2.95;;;6.00;78.70;;;;;;4986219;28;20499;-66
2021/04/22 06:31:57;;;;;;;15.35;3.40;;;6.00;78.90;;;;;;4990681;28;20293;-66
2021/04/22 06:34:23;;;;;;;16.90;3.42;;;6.00;76.50;;;;;;4988088;28;20034;-64
2021/04/22 06:36:49;;;;;;;9.35;2.70;;;6.10;76.40;;;;;;4988388;28;20679;-65
2021/04/22 06:39:15;;;;;;;13.65;2.47;;;6.10;75.60;;;;;;4986489;28;20030;-66
2021/04/22 06:41:41;;;;;;;11.10;2.30;;;6.10;74.50;;;;;;4989891;28;20044;-66
2021/04/22 06:44:06;;;;;;;12.15;2.60;;;6.00;74.70;;;;;;4972516;28;20030;-66
2021/04/22 06:46:34;;;;;;;12.40;2.70;;;6.00;76.40;;;;;;4990649;28;20076;-67
2021/04/22 06:49:00;;;;;;;11.75;2.28;;;6.00;77.80;;;;;;4985062;28;20027;-66
2021/04/22 06:51:26;;;;;;;11.73;2.60;;;5.90;79.10;;;;;;4990261;28;20057;-66
2021/04/22 06:53:52;;;;;;;7.95;1.98;;;5.80;80.80;;;;;;4988890;28;20061;-66
2021/04/22 06:56:18;;;;;;;12.75;2.78;;;5.80;80.30;;;;;;4970476;28;20459;-68
2021/04/22 06:58:43;;;;;;;9.73;2.53;;;5.90;80.50;;;;;;4986248;28;20119;-66
2021/04/22 07:01:09;;;;;;;16.70;2.97;;;6.10;80.40;;;;;;4987697;28;20034;-67
2021/04/22 07:03:35;;;;;;;13.30;2.90;;;6.10;80.50;;;;;;4966699;28;20033;-66
2021/04/22 07:06:00;;;;;;;9.32;2.65;;;6.20;80.10;;;;;;4984944;28;20410;-68
2021/04/22 07:08:26;;;;;;;16.98;2.92;;;6.20;79.50;;;;;;4986759;28;20026;-68
2021/04/22 07:10:52;;;;;;;13.60;2.83;;;6.20;78.80;;;;;;4986576;28;20038;-67
2021/04/22 07:13:17;;;;;;;15.75;3.00;;;6.30;78.10;;;;;;4987780;28;20038;-67
2021/04/22 07:15:43;;;;;;;15.00;3.08;;;6.40;78.50;;;;;;4985885;28;20030;-67
2021/04/22 07:18:11;;;;;;;9.30;2.70;;;6.40;78.30;;;;;;4988426;28;20026;-67
2021/04/22 07:20:37;;;;;;;15.80;2.72;;;6.40;77.50;;;;;;4984908;28;20045;-68
2021/04/22 07:23:03;;;;;;;12.82;2.58;;;6.40;77.00;;;;;;4972714;28;20035;-68
2021/04/22 07:25:33;;;;;;;19.50;2.70;;;6.50;76.80;;;;;;4988106;28;20101;-67
2021/04/22 07:28:04;;;;;;;17.60;2.85;;;6.60;75.90;;;;;;4977790;28;20045;-66
2021/04/22 07:30:29;;;;;;;16.02;3.10;;;6.70;73.60;;;;;;4989058;28;20414;-67
2021/04/22 07:32:55;;;;;;;16.23;2.60;;;7.30;72.30;;;;;;4987271;28;20042;-68
2021/04/22 07:35:21;;;;;;;12.15;2.50;;;7.60;72.50;;;;;;4984527;28;20264;-67
2021/04/22 07:37:48;;;;;;;15.45;2.58;;;7.60;71.00;;;;;;4986349;28;20034;-68
2021/04/22 07:40:21;;;;;;;9.90;2.15;;;7.60;70.10;;;;;;4988322;28;20027;-68
2021/04/22 07:42:47;;;;;;;16.58;3.25;;;7.30;69.40;;;;;;4988616;28;20049;-68
2021/04/22 07:45:15;;;;;;;15.65;2.63;;;7.30;68.40;;;;;;4985277;28;20026;-68
2021/04/22 07:47:41;;;;;;;10.57;2.25;;;7.20;67.80;;;;;;4987742;28;20037;-68
2021/04/22 07:50:09;;;;;;;14.63;3.13;;;7.20;67.70;;;;;;4979305;28;20242;-68
2021/04/22 07:52:34;;;;;;;17.23;2.60;;;7.40;68.30;;;;;;4987349;28;20030;-67
2021/04/22 07:55:00;;;;;;;9.10;2.42;;;7.60;67.10;;;;;;4984368;28;20080;-67
2021/04/22 07:57:25;;;;;;;10.82;2.50;;;7.80;67.90;;;;;;4986892;28;20030;-67
2021/04/22 07:59:51;;;;;;;15.63;2.50;;;8.10;64.00;;;;;;4987814;28;20030;-69
2021/04/22 08:02:17;;;;;;;22.00;2.53;;;8.30;64.80;;;;;;4987176;28;20301;-68
2021/04/22 08:04:42;;;;;;;10.88;2.67;;;8.10;63.40;;;;;;4986069;28;20034;-66
2021/04/22 08:07:08;;;;;;;11.63;2.40;;;8.00;64.30;;;;;;4985184;28;20045;-66
2021/04/22 08:09:34;;;;;;;11.07;2.50;;;8.30;63.00;;;;;;4986098;28;20479;-68
2021/04/22 08:12:01;;;;;;;7.35;1.92;;;8.40;62.30;;;;;;4988752;28;20114;-68
2021/04/22 08:14:26;;;;;;;16.35;2.15;;;8.30;60.70;;;;;;4982896;28;20026;-67
2021/04/22 08:16:52;;;;;;;12.35;2.45;;;8.10;62.30;;;;;;4986056;28;20026;-67
2021/04/22 08:19:17;;;;;;;13.63;2.92;;;8.20;62.70;;;;;;4984945;28;20117;-67
2021/04/22 08:21:43;;;;;;;12.18;3.00;;;8.20;62.70;;;;;;4987238;28;20084;-67
2021/04/22 08:24:09;;;;;;;9.38;2.22;;;8.40;62.30;;;;;;4981950;28;20076;-67
2021/04/22 08:26:36;;;;;;;12.75;2.88;;;8.30;60.40;;;;;;4984395;28;20034;-68
2021/04/22 08:29:03;;;;;;;13.65;2.65;;;8.40;60.20;;;;;;4984080;28;20061;-68
2021/04/22 08:31:29;;;;;;;11.43;2.80;;;8.80;61.20;;;;;;4985250;28;20190;-69
2021/04/22 08:34:02;;;;;;;11.88;2.75;;;8.90;60.90;;;;;;4984759;28;21963;-67
2021/04/22 08:36:29;;;;;;;9.75;2.97;;;8.50;59.20;;;;;;4983683;28;20030;-69
2021/04/22 08:38:54;;;;;;;15.60;3.10;;;8.40;60.40;;;;;;4986221;28;20479;-67
2021/04/22 08:41:21;;;;;;;7.10;1.48;;;8.20;60.90;;;;;;4967866;28;20077;-68
2021/04/22 08:43:48;;;;;;;12.27;2.40;;;8.00;60.10;;;;;;4981747;28;20104;-67
2021/04/22 08:46:15;;;;;;;14.73;2.95;;;8.10;61.70;;;;;;4987379;28;20030;-67
2021/04/22 08:48:42;;;;;;;14.50;2.60;;;8.20;61.00;;;;;;4985185;28;20044;-67
2021/04/22 08:51:09;;;;;;;9.20;2.67;;;8.40;59.70;;;;;;4975758;28;20030;-67
2021/04/22 08:53:38;;;;;;;14.00;3.00;;;8.60;59.40;;;;;;4986069;28;20108;-67
2021/04/22 08:56:04;;;;;;;12.20;3.13;;;8.70;59.40;;;;;;4972964;28;20372;-67
2021/04/22 08:58:30;;;;;;;9.93;2.33;;;8.70;58.90;;;;;;4986129;28;20037;-69
2021/04/22 09:01:04;;;;;;;15.18;2.95;;;8.30;59.00;;;;;;4986295;28;20035;-69
2021/04/22 09:03:30;;;;;;;16.08;2.92;;;8.50;59.40;;;;;;4986181;28;20038;-67
2021/04/22 09:05:56;;;;;;;13.90;2.63;;;8.60;59.00;;;;;;4985931;28;20041;-68
2021/04/22 09:08:37;;;;;;;14.25;3.08;;;9.00;59.20;;;;;;4986575;28;20495;-68
2021/04/22 09:11:06;;;;;;;12.40;3.00;;;9.00;59.50;;;;;;4987006;28;20422;-69
2021/04/22 09:13:35;;;;;;;15.88;3.35;;;9.30;58.80;;;;;;4982845;28;20343;-67
2021/04/22 09:16:10;;;;;;;14.93;3.33;;;9.70;58.30;;;;;;4982040;28;20023;-67
2021/04/22 09:18:45;;;;;;;10.48;2.63;;;9.40;56.60;;;;;;4983215;28;20045;-67
2021/04/22 09:21:31;;;;;;;16.23;3.05;;;9.20;56.90;;;;;;4984416;28;20034;-67
2021/04/22 09:24:19;;;;;;;15.57;3.50;;;9.10;56.30;;;;;;4986133;28;20496;-68
2021/04/22 09:26:52;;;;;;;14.00;3.47;;;8.80;57.10;;;;;;4992912;28;20032;-67
2021/04/22 09:29:39;;;;;;;11.05;3.22;;;8.60;58.50;;;;;;4986319;28;20031;-68
2021/04/22 09:32:16;;;;;;;9.45;3.08;;;8.80;59.10;;;;;;4984690;28;20052;-66
2021/04/22 09:34:48;;;;;;;12.23;2.78;;;9.20;56.90;;;;;;4987061;28;21090;-67
2021/04/22 09:37:14;;;;;;;10.02;2.70;;;9.60;55.10;;;;;;4989889;28;20197;-66
2021/04/22 09:39:40;;;;;;;11.48;2.63;;;9.30;53.80;;;;;;4987830;28;20030;-67
2021/04/22 09:42:10;;;;;;;10.50;2.92;;;9.10;52.10;;;;;;4987846;28;20088;-67
2021/04/22 09:44:37;;;;;;;11.90;2.53;;;9.00;53.00;;;;;;4988917;28;20026;-67
2021/04/22 09:47:16;;;;;;;9.75;2.45;;;9.40;53.30;;;;;;4974789;28;20027;-67
2021/04/22 09:49:47;;;;;;;9.38;2.60;;;9.40;52.60;;;;;;4985109;28;20427;-67
2021/04/22 09:52:16;;;;;;;7.93;2.58;;;9.20;52.90;;;;;;4988289;28;20425;-68
2021/04/22 09:54:51;;;;;;;9.73;2.28;;;9.20;53.00;;;;;;4987260;28;20062;-68
2021/04/22 09:57:26;;;;;;;12.70;2.90;;;9.80;52.50;;;;;;4987848;28;20278;-68
2021/04/22 09:59:53;;;;;;;10.25;2.97;;;9.80;52.50;;;;;;4987447;28;20038;-68
2021/04/22 10:02:19;;;;;;;11.38;2.65;;;9.50;53.10;;;;;;4989310;28;20062;-68
2021/04/22 10:04:48;;;;;;;10.75;2.80;;;9.40;54.30;;;;;;4983132;28;20034;-67
2021/04/22 10:07:28;;;;;;;13.32;3.25;;;10.10;54.40;;;;;;4990940;28;20436;-67
2021/04/22 10:10:16;;;;;;;6.85;2.63;;;10.20;53.70;;;;;;4983223;28;20023;-68
2021/04/22 10:12:41;;;;;;;9.52;2.38;;;10.00;52.40;;;;;;4996448;28;20034;-67
2021/04/22 10:15:21;;;;;;;8.98;2.60;;;9.60;53.00;;;;;;4968659;28;20368;-67
2021/04/22 10:17:57;;;;;;;11.25;2.92;;;9.40;54.20;;;;;;4987650;28;20030;-68
2021/04/22 10:20:25;;;;;;;6.82;2.55;;;9.30;55.60;;;;;;4989396;28;20388;-67
2021/04/22 10:22:53;;;;;;;9.98;2.67;;;9.40;54.40;;;;;;4985280;28;20467;-67
2021/04/22 10:25:25;;;;;;;13.55;2.85;;;9.70;54.70;;;;;;4985109;28;20102;-67
2021/04/22 10:27:52;;;;;;;11.75;3.22;;;9.60;54.00;;;;;;4988459;28;20611;-67
2021/04/22 10:30:21;;;;;;;9.40;2.95;;;10.30;53.30;;;;;;4987858;28;20446;-68
2021/04/22 10:32:47;;;;;;;15.73;3.33;;;10.10;52.70;;;;;;4989556;28;20203;-68
2021/04/22 10:35:17;;;;;;;14.48;3.17;;;9.70;55.00;;;;;;4985042;28;20022;-67
2021/04/22 10:37:44;;;;;;;11.25;2.85;;;9.30;56.90;;;;;;4987723;28;20036;-68
2021/04/22 10:40:12;;;;;;;10.18;2.85;;;9.60;56.90;;;;;;4987760;28;20065;-68
2021/04/22 10:42:38;;;;;;;9.90;2.97;;;9.50;54.70;;;;;;4990337;28;20694;-67
2021/04/22 10:45:06;;;;;;;9.48;2.75;;;9.50;54.80;;;;;;4986483;28;20034;-67
2021/04/22 10:47:32;;;;;;;9.85;2.80;;;9.60;55.10;;;;;;4985449;28;20503;-67
2021/04/22 10:49:58;;;;;;;11.43;3.25;;;9.50;55.30;;;;;;4988666;28;20034;-67
2021/04/22 10:52:24;;;;;;;8.48;2.75;;;9.70;55.30;;;;;;4988983;28;20050;-67
2021/04/22 10:54:52;;;;;;;12.35;3.22;;;9.80;54.80;;;;;;4974345;28;20557;-67
2021/04/22 10:57:21;;;;;;;13.70;3.08;;;10.00;54.40;;;;;;4983344;28;20054;-67
2021/04/22 10:59:48;;;;;;;9.57;2.70;;;9.70;54.50;;;;;;4981004;28;20034;-67
2021/04/22 11:02:17;;;;;;;7.90;2.83;;;9.50;55.30;;;;;;4988649;28;20027;-68
2021/04/22 11:04:47;;;;;;;5.03;2.13;;;9.60;54.80;;;;;;4983704;28;20590;-67
2021/04/22 11:07:24;;;;;;;11.27;2.95;;;9.10;56.00;;;;;;4989087;28;20089;-67
2021/04/22 11:09:55;;;;;;;10.52;3.00;;;9.60;55.90;;;;;;4986414;28;20117;-67
2021/04/22 11:12:27;;;;;;;10.98;2.75;;;9.60;55.80;;;;;;4987800;28;20427;-68
2021/04/22 11:14:54;;;;;;;8.13;2.33;;;9.60;55.90;;;;;;4986955;28;20143;-68
2021/04/22 11:17:33;;;;;;;8.35;2.65;;;9.50;55.70;;;;;;4985653;28;20061;-69
2021/04/22 11:20:14;;;;;;;10.93;3.05;;;10.00;55.50;;;;;;4987460;28;20026;-68
2021/04/22 11:22:40;;;;;;;6.40;2.55;;;10.30;54.70;;;;;;4987482;28;20116;-69
2021/04/22 11:25:08;;;;;;;9.13;2.70;;;10.50;53.80;;;;;;4985888;28;20558;-67
2021/04/22 11:27:44;;;;;;;13.05;2.80;;;10.10;54.90;;;;;;4988593;28;20466;-68
2021/04/22 11:30:10;;;;;;;9.52;2.45;;;9.90;56.70;;;;;;4986937;28;20058;-67
2021/04/22 11:32:42;;;;;;;16.45;2.85;;;9.40;60.70;;;;;;4981754;28;20034;-67
2021/04/22 11:35:19;;;;;;;7.60;2.65;;;9.20;64.10;;;;;;4981866;28;20026;-68
2021/04/22 11:37:47;;;;;;;11.20;2.65;;;9.20;63.20;;;;;;4986088;28;20018;-69
2021/04/22 11:40:13;;;;;;;10.45;2.15;;;9.70;60.30;;;;;;4985347;28;20491;-67
2021/04/22 11:42:41;;;;;;;9.18;2.80;;;10.40;56.80;;;;;;4986878;28;20018;-68
2021/04/22 11:45:09;;;;;;;9.60;2.60;;;10.20;56.30;;;;;;4986685;28;20064;-68
2021/04/22 11:47:35;;;;;;;8.77;2.47;;;10.70;56.80;;;;;;4982634;28;20026;-68
2021/04/22 11:50:12;;;;;;;10.60;2.80;;;10.70;54.70;;;;;;4986427;28;20085;-68
2021/04/22 11:52:49;;;;;;;10.68;2.55;;;10.50;55.00;;;;;;4986503;28;20030;-68
2021/04/22 11:55:27;;;;;;;8.93;2.50;;;10.40;56.70;;;;;;4995292;28;20022;-69
2021/04/22 11:58:16;;;;;;;7.63;2.50;;;10.20;56.80;;;;;;4975891;28;20085;-68
2021/04/22 12:00:46;;;;;;;14.13;3.20;;;9.80;57.90;;;;;;4986616;28;20030;-67
2021/04/22 12:03:15;;;;;;;7.97;2.28;;;9.70;58.70;;;;;;4968121;28;20038;-68
2021/04/22 12:05:41;;;;;;;10.90;2.97;;;10.00;58.40;;;;;;4983238;28;20121;-67
2021/04/22 12:08:11;;;;;;;7.47;2.20;;;10.20;58.40;;;;;;4984923;28;20495;-68
2021/04/22 12:10:44;;;;;;;8.18;2.35;;;10.30;57.20;;;;;;4983332;28;20069;-67
2021/04/22 12:13:12;;;;;;;9.77;2.88;;;10.00;58.60;;;;;;4984914;28;20030;-68
2021/04/22 12:15:43;;;;;;;8.85;2.58;;;11.10;56.80;;;;;;4984070;28;20029;-67
2021/04/22 12:18:10;;;;;;;11.80;2.83;;;10.60;57.60;;;;;;4984928;28;20026;-67
2021/04/22 12:20:38;;;;;;;12.88;2.22;;;10.30;57.90;;;;;;4981481;28;20030;-68
2021/04/22 12:23:04;;;;;;;9.88;3.17;;;9.70;60.80;;;;;;4983024;28;20073;-66
2021/04/22 12:25:30;;;;;;;9.38;2.78;;;9.70;64.10;;;;;;4983828;28;20029;-67
2021/04/22 12:28:03;;;;;;;5.43;2.20;;;9.20;61.70;;;;;;4983254;28;20121;-69
2021/04/22 12:30:49;;;;;;;6.15;2.20;;;9.20;62.90;;;;;;4980044;28;20156;-69
2021/04/22 12:33:23;;;;;;;10.18;2.28;;;9.90;58.70;;;;;;4980341;28;20023;-68
2021/04/22 12:35:55;;;;;;;11.85;2.47;;;9.80;58.30;;;;;;4984026;28;20046;-69
2021/04/22 12:38:25;;;;;;;7.60;1.95;;;9.40;58.10;;;;;;4983110;28;20080;-66
2021/04/22 12:40:55;;;;;;;12.18;2.30;;;9.70;57.80;;;;;;4983690;28;21374;-67
2021/04/22 12:43:31;;;;;;;9.20;2.20;;;9.40;58.60;;;;;;4975980;28;20053;-68
2021/04/22 12:46:07;;;;;;;9.82;2.60;;;9.30;59.10;;;;;;4973435;28;20030;-68
2021/04/22 12:48:33;;;;;;;12.80;3.30;;;9.60;59.30;;;;;;4982933;28;20019;-67
2021/04/22 12:50:58;;;;;;;10.38;3.15;;;9.60;59.30;;;;;;4983566;28;20032;-67